createdAt,value
2022-10-14T00:01:33.733Z,52.24
2022-10-14T00:03:36.552Z,52.39
2022-10-14T00:05:41.652Z,52.61
2022-10-14T00:07:44.542Z,52.79
2022-10-14T00:09:46.719Z,52.83
2022-10-14T00:11:49.315Z,52.76
2022-10-14T00:13:54.549Z,52.73
2022-10-14T00:15:56.430Z,52.72
2022-10-14T00:17:58.392Z,52.74
2022-10-14T00:20:00.378Z,53.23
2022-10-14T00:22:01.998Z,52.99
2022-10-14T00:24:03.840Z,53.32
2022-10-14T00:26:05.695Z,54.03
2022-10-14T00:28:07.395Z,54.26
2022-10-14T00:30:09.584Z,54.57
2022-10-14T00:32:11.301Z,54.60
2022-10-14T00:34:15.986Z,54.84
2022-10-14T00:36:20.241Z,54.60
2022-10-14T00:38:22.108Z,54.83
2022-10-14T00:40:23.834Z,54.49
2022-10-14T00:42:25.711Z,54.50
2022-10-14T00:44:27.278Z,54.60
2022-10-14T00:46:31.619Z,54.78
2022-10-14T00:48:33.275Z,54.78
2022-10-14T00:50:35.681Z,54.81
2022-10-14T00:52:37.733Z,54.99
2022-10-14T00:55:04.152Z,54.77
2022-10-14T00:57:06.156Z,55.14
2022-10-14T00:59:08.063Z,55.66
2022-10-14T01:01:09.786Z,55.46
2022-10-14T01:03:19.686Z,55.77
2022-10-14T01:05:21.357Z,55.95
2022-10-14T01:07:41.137Z,56.28
2022-10-14T01:10:00.955Z,56.16
2022-10-14T01:14:59.348Z,56.18
2022-10-14T01:17:23.557Z,56.69
2022-10-14T01:20:00.552Z,56.51
2022-10-14T01:22:13.518Z,56.89
2022-10-14T01:24:40.827Z,57.19
2022-10-14T01:27:07.703Z,57.08
2022-10-14T01:29:14.946Z,57.51
2022-10-14T01:31:48.441Z,57.54
2022-10-14T01:33:53.552Z,57.38
2022-10-14T01:36:11.473Z,57.64
2022-10-14T01:38:22.402Z,57.30
2022-10-14T01:40:31.586Z,57.91
2022-10-14T01:42:35.513Z,57.57
2022-10-14T01:44:41.261Z,57.64
2022-10-14T01:46:46.736Z,58.14
2022-10-14T01:48:52.102Z,57.98
2022-10-14T01:50:54.695Z,58.41
2022-10-14T01:53:02.108Z,58.94
2022-10-14T01:55:07.049Z,58.97
2022-10-14T01:57:12.002Z,58.71
2022-10-14T01:59:15.535Z,58.69
2022-10-14T02:01:17.493Z,59.02
2022-10-14T02:03:19.330Z,59.35
2022-10-14T02:05:34.586Z,59.51
2022-10-14T02:07:40.369Z,60.38
2022-10-14T02:10:04.900Z,60.16
2022-10-14T02:12:20.473Z,61.33
2022-10-14T02:14:39.411Z,61.22
2022-10-14T02:16:49.456Z,61.72
2022-10-14T02:19:20.637Z,61.74
2022-10-14T02:21:32.203Z,61.65
2022-10-14T02:23:42.181Z,61.93
2022-10-14T02:25:45.872Z,61.61
2022-10-14T02:27:48.838Z,61.39
2022-10-14T02:29:51.077Z,61.64
2022-10-14T02:31:53.472Z,61.96
2022-10-14T02:33:58.815Z,62.15
2022-10-14T02:36:01.941Z,62.07
2022-10-14T02:38:05.037Z,61.85
2022-10-14T02:40:18.999Z,62.13
2022-10-14T02:42:20.915Z,62.16
2022-10-14T02:44:23.001Z,62.10
2022-10-14T02:46:24.650Z,62.22
2022-10-14T02:48:26.429Z,61.72
2022-10-14T02:50:28.407Z,61.67
2022-10-14T02:52:30.120Z,61.58
2022-10-14T02:54:31.724Z,61.77
2022-10-14T02:56:33.721Z,62.14
2022-10-14T02:58:35.411Z,62.09
2022-10-14T03:00:37.134Z,62.36
2022-10-14T03:02:38.865Z,62.33
2022-10-14T03:04:40.550Z,62.43
2022-10-14T03:06:42.145Z,62.82
2022-10-14T03:08:43.890Z,63.13
2022-10-14T03:10:48.428Z,63.16
2022-10-14T03:12:50.302Z,63.21
2022-10-14T03:14:51.984Z,62.92
2022-10-14T03:16:53.820Z,62.89
2022-10-14T03:18:55.392Z,62.91
2022-10-14T03:20:57.249Z,62.56
2022-10-14T03:22:58.859Z,62.76
2022-10-14T03:25:00.488Z,62.91
2022-10-14T03:27:02.202Z,62.88
2022-10-14T03:29:03.964Z,63.65
2022-10-14T03:31:05.798Z,63.70
2022-10-14T03:33:08.419Z,63.90
2022-10-14T03:35:10.718Z,63.94
2022-10-14T03:37:12.351Z,64.14
2022-10-14T03:39:14.167Z,64.41
2022-10-14T03:41:16.001Z,64.25
2022-10-14T03:43:17.687Z,64.40
2022-10-14T03:45:19.271Z,64.68
2022-10-14T03:47:21.554Z,64.59
2022-10-14T03:49:23.242Z,64.19
2022-10-14T03:51:24.872Z,64.76
2022-10-14T03:53:26.587Z,65.13
2022-10-14T03:55:28.258Z,64.65
2022-10-14T03:57:29.807Z,64.50
2022-10-14T03:59:31.694Z,64.29
2022-10-14T04:01:33.423Z,64.76
2022-10-14T04:03:35.038Z,64.96
2022-10-14T04:05:37.249Z,64.99
2022-10-14T04:07:39.066Z,64.67
2022-10-14T04:09:40.797Z,64.91
2022-10-14T04:11:42.405Z,64.84
2022-10-14T04:13:45.392Z,65.22
2022-10-14T04:15:47.360Z,65.13
2022-10-14T04:17:49.421Z,65.46
2022-10-14T04:19:51.677Z,65.43
2022-10-14T04:21:53.343Z,65.92
2022-10-14T04:23:55.002Z,65.36
2022-10-14T04:25:56.637Z,65.48
2022-10-14T04:27:58.475Z,65.08
2022-10-14T04:30:00.194Z,65.04
2022-10-14T04:32:02.055Z,64.70
2022-10-14T04:34:03.790Z,64.63
2022-10-14T04:36:06.649Z,64.76
2022-10-14T04:38:08.418Z,64.21
2022-10-14T04:40:10.554Z,64.56
2022-10-14T04:42:12.317Z,64.96
2022-10-14T04:44:13.976Z,64.89
2022-10-14T04:46:15.557Z,64.96
2022-10-14T04:48:18.391Z,64.84
2022-10-14T04:50:20.464Z,64.71
2022-10-14T04:52:22.712Z,64.51
2022-10-14T04:54:24.530Z,64.27
2022-10-14T04:56:26.232Z,64.38
2022-10-14T04:58:28.127Z,64.54
2022-10-14T05:00:30.805Z,64.15
2022-10-14T05:02:32.425Z,64.35
2022-10-14T05:04:34.211Z,64.81
2022-10-14T05:06:37.427Z,65.04
2022-10-14T05:08:39.106Z,65.13
2022-10-14T05:10:40.997Z,65.42
2022-10-14T05:12:42.707Z,65.32
2022-10-14T05:14:44.342Z,65.02
2022-10-14T05:16:45.968Z,64.39
2022-10-14T05:18:47.625Z,63.74
2022-10-14T05:20:49.356Z,63.77
2022-10-14T05:22:51.044Z,63.33
2022-10-14T05:24:52.728Z,63.43
2022-10-14T05:26:54.377Z,62.80
2022-10-14T05:28:56.288Z,62.63
2022-10-14T05:30:58.136Z,62.75
2022-10-14T05:32:59.761Z,61.97
2022-10-14T05:35:01.574Z,61.65
2022-10-14T05:37:03.798Z,61.74
2022-10-14T05:39:09.346Z,62.11
2022-10-14T05:41:11.161Z,61.86
2022-10-14T05:43:12.838Z,61.62
2022-10-14T05:45:14.831Z,61.31
2022-10-14T05:47:16.875Z,61.46
2022-10-14T05:49:18.574Z,61.45
2022-10-14T05:51:21.559Z,61.35
2022-10-14T05:53:23.288Z,61.11
2022-10-14T05:55:25.045Z,60.81
2022-10-14T05:57:28.004Z,60.80
2022-10-14T05:59:29.986Z,60.48
2022-10-14T06:01:34.728Z,60.29
2022-10-14T06:03:36.599Z,60.97
2022-10-14T06:05:38.495Z,60.68
2022-10-14T06:07:40.179Z,60.33
2022-10-14T06:09:41.898Z,60.25
2022-10-14T06:11:43.634Z,60.05
2022-10-14T06:13:45.302Z,59.87
2022-10-14T06:15:47.016Z,60.09
2022-10-14T06:17:48.808Z,59.74
2022-10-14T06:19:50.554Z,59.95
2022-10-14T06:21:52.190Z,59.62
2022-10-14T06:23:53.891Z,60.35
2022-10-14T06:25:55.563Z,59.73
2022-10-14T06:28:06.409Z,59.86
2022-10-14T06:30:08.831Z,59.51
2022-10-14T06:32:10.464Z,59.21
2022-10-14T06:34:12.175Z,59.41
2022-10-14T06:36:13.832Z,59.33
2022-10-14T06:38:16.693Z,59.77
2022-10-14T06:40:18.539Z,60.15
2022-10-14T06:42:20.218Z,59.56
2022-10-14T06:44:21.884Z,59.77
2022-10-14T06:46:25.353Z,60.52
2022-10-14T06:48:27.034Z,59.86
2022-10-14T06:50:28.790Z,60.22
2022-10-14T06:52:30.519Z,59.98
2022-10-14T06:54:36.811Z,59.41
2022-10-14T06:56:40.628Z,59.69
2022-10-14T06:58:42.602Z,59.66
2022-10-14T07:00:47.974Z,60.16
2022-10-14T07:02:49.983Z,60.21
2022-10-14T07:04:51.654Z,59.62
2022-10-14T07:06:53.444Z,59.08
2022-10-14T07:08:55.090Z,58.69
2022-10-14T07:10:56.974Z,59.11
2022-10-14T07:12:58.642Z,58.68
2022-10-14T07:15:00.351Z,58.24
2022-10-14T07:17:02.097Z,58.77
2022-10-14T07:19:03.784Z,58.44
2022-10-14T07:21:06.323Z,57.86
2022-10-14T07:23:08.038Z,57.09
2022-10-14T07:25:10.029Z,57.03
2022-10-14T07:27:12.066Z,56.70
2022-10-14T07:29:13.929Z,56.21
2022-10-14T07:31:15.551Z,56.04
2022-10-14T07:33:17.236Z,56.87
2022-10-14T07:35:21.750Z,57.10
2022-10-14T07:37:23.945Z,56.95
2022-10-14T07:39:26.052Z,57.36
2022-10-14T07:41:28.172Z,56.87
2022-10-14T07:43:30.377Z,56.74
2022-10-14T07:45:35.931Z,56.61
2022-10-14T07:47:37.596Z,56.16
2022-10-14T07:49:39.613Z,56.18
2022-10-14T07:51:42.496Z,55.79
2022-10-14T07:53:44.230Z,57.06
2022-10-14T07:55:52.382Z,57.39
2022-10-14T07:57:54.125Z,57.57
2022-10-14T07:59:55.787Z,56.86
2022-10-14T08:01:57.616Z,56.58
2022-10-14T08:03:59.373Z,56.01
2022-10-14T08:06:04.205Z,55.90
2022-10-14T08:08:05.998Z,55.48
2022-10-14T08:10:07.694Z,55.16
2022-10-14T08:12:09.430Z,54.88
2022-10-14T08:14:11.187Z,54.55
2022-10-14T08:16:18.509Z,54.41
2022-10-14T08:18:20.139Z,54.05
2022-10-14T08:22:28.498Z,53.93
2022-10-14T08:24:30.180Z,53.91
2022-10-14T08:26:35.177Z,53.47
2022-10-14T08:28:36.885Z,52.95
2022-10-14T08:30:38.591Z,53.26
2022-10-14T08:32:40.219Z,53.20
2022-10-14T08:34:41.909Z,53.49
2022-10-14T08:36:43.555Z,53.40
2022-10-14T08:38:45.514Z,53.59
2022-10-14T08:41:00.244Z,53.71
2022-10-14T08:43:06.949Z,53.20
2022-10-14T08:45:15.375Z,53.56
2022-10-14T08:47:21.689Z,53.03
2022-10-14T08:49:35.442Z,52.77
2022-10-14T08:51:37.929Z,52.52
2022-10-14T08:53:46.737Z,52.03
2022-10-14T08:55:51.705Z,52.19
2022-10-14T08:58:22.589Z,51.66
2022-10-14T09:00:24.423Z,51.83
2022-10-14T09:02:43.628Z,51.51
2022-10-14T09:04:45.330Z,51.80
2022-10-14T09:06:48.141Z,50.53
2022-10-14T09:08:50.637Z,49.89
2022-10-14T09:10:52.465Z,49.83
2022-10-14T09:12:56.852Z,49.92
2022-10-14T09:15:21.864Z,50.35
2022-10-14T09:17:27.349Z,49.98
2022-10-14T09:19:37.441Z,50.16
2022-10-14T09:21:59.321Z,49.97
2022-10-14T09:24:13.733Z,49.57
2022-10-14T09:26:19.725Z,49.23
2022-10-14T09:28:24.154Z,49.16
2022-10-14T09:30:29.958Z,48.66
2022-10-14T09:32:41.678Z,48.67
2022-10-14T09:34:48.768Z,48.19
2022-10-14T09:39:02.280Z,47.06
2022-10-14T09:41:10.943Z,47.70
2022-10-14T09:43:18.387Z,48.21
2022-10-14T09:45:25.178Z,48.47
2022-10-14T09:47:26.856Z,48.35
2022-10-14T09:49:40.766Z,47.18
2022-10-14T09:51:42.857Z,48.42
2022-10-14T09:53:48.680Z,48.32
2022-10-14T09:55:56.357Z,48.78
2022-10-14T09:58:04.226Z,48.69
2022-10-14T10:00:06.723Z,48.17
2022-10-14T10:02:23.281Z,47.11
2022-10-14T10:04:47.048Z,46.13
2022-10-14T10:06:53.154Z,46.71
2022-10-14T10:08:56.866Z,46.41
2022-10-14T10:11:10.278Z,46.17
2022-10-14T10:13:43.434Z,46.11
2022-10-14T10:15:57.339Z,46.08
2022-10-14T10:17:59.181Z,45.87
2022-10-14T10:20:31.900Z,45.71
2022-10-14T10:22:38.925Z,45.94
2022-10-14T10:24:40.718Z,45.32
2022-10-14T10:26:42.546Z,44.67
2022-10-14T10:28:46.460Z,43.84
2022-10-14T10:31:19.973Z,43.72
2022-10-14T10:33:42.695Z,44.09
2022-10-14T10:36:03.114Z,43.64
2022-10-14T10:38:15.697Z,43.93
2022-10-14T10:40:35.080Z,43.87
2022-10-14T10:43:05.340Z,43.63
2022-10-14T10:45:47.682Z,43.28
2022-10-14T10:47:57.359Z,43.28
2022-10-14T10:49:59.069Z,43.00
2022-10-14T10:52:30.715Z,42.85
2022-10-14T10:54:57.343Z,43.24
2022-10-14T10:57:34.650Z,43.97
2022-10-14T10:59:56.378Z,44.53
2022-10-14T11:02:18.250Z,44.16
2022-10-14T11:04:45.776Z,43.26
2022-10-14T11:07:15.434Z,42.10
2022-10-14T11:09:48.693Z,43.16
2022-10-14T11:12:03.229Z,42.66
2022-10-14T11:14:07.807Z,41.54
2022-10-14T11:16:27.764Z,41.11
2022-10-14T11:18:35.212Z,40.58
2022-10-14T11:20:58.185Z,39.43
2022-10-14T11:23:37.367Z,39.35
2022-10-14T11:25:53.553Z,39.63
2022-10-14T11:28:19.614Z,38.56
2022-10-14T11:30:37.944Z,36.78
2022-10-14T11:32:54.562Z,36.48
2022-10-14T11:35:14.992Z,36.01
2022-10-14T11:37:27.830Z,36.97
2022-10-14T11:39:36.814Z,37.34
2022-10-14T11:42:14.125Z,37.29
2022-10-14T11:44:49.570Z,35.85
2022-10-14T11:46:54.679Z,35.11
2022-10-14T11:48:58.548Z,34.65
2022-10-14T11:51:24.655Z,34.14
2022-10-14T11:55:48.266Z,34.29
2022-10-14T11:58:05.621Z,33.48
2022-10-14T12:00:14.018Z,33.36
2022-10-14T12:02:33.912Z,32.17
2022-10-14T12:04:36.643Z,32.75
2022-10-14T12:06:42.436Z,33.05
2022-10-14T12:08:50.941Z,33.30
2022-10-14T12:10:58.553Z,33.06
2022-10-14T12:13:00.629Z,33.24
2022-10-14T12:15:07.137Z,32.53
2022-10-14T12:17:26.234Z,32.05
2022-10-14T12:19:28.749Z,33.04
2022-10-14T12:21:35.783Z,33.33
2022-10-14T12:23:46.094Z,33.75
2022-10-14T12:26:12.201Z,33.97
2022-10-14T12:28:14.622Z,33.87
2022-10-14T12:30:40.344Z,34.13
2022-10-14T12:33:00.749Z,34.32
2022-10-14T12:35:02.617Z,34.38
2022-10-14T12:37:32.305Z,34.53
2022-10-14T12:39:34.996Z,34.03
2022-10-14T12:41:36.528Z,34.55
2022-10-14T12:43:38.220Z,34.15
2022-10-14T12:45:56.805Z,34.49
2022-10-14T12:48:04.758Z,34.63
2022-10-14T12:50:15.066Z,34.13
2022-10-14T12:52:21.613Z,34.23
2022-10-14T12:54:23.927Z,34.67
2022-10-14T12:56:31.704Z,34.82
2022-10-14T12:58:56.271Z,35.20
2022-10-14T13:01:04.094Z,35.58
2022-10-14T13:03:17.273Z,35.72
2022-10-14T13:05:42.482Z,35.70
2022-10-14T13:07:48.852Z,35.93
2022-10-14T13:09:57.907Z,36.00
2022-10-14T13:11:59.568Z,35.86
2022-10-14T13:14:02.225Z,36.44
2022-10-14T13:16:10.995Z,36.16
2022-10-14T13:18:31.281Z,36.32
2022-10-14T13:20:36.034Z,36.29
2022-10-14T13:22:38.945Z,36.78
2022-10-14T13:24:41.826Z,37.22
2022-10-14T13:26:55.646Z,38.03
2022-10-14T13:29:06.487Z,38.39
2022-10-14T13:31:43.462Z,38.49
2022-10-14T13:33:51.361Z,38.87
2022-10-14T13:36:22.800Z,39.37
2022-10-14T13:38:24.703Z,39.12
2022-10-14T13:40:39.065Z,38.69
2022-10-14T13:42:40.803Z,38.37
2022-10-14T13:44:43.667Z,38.42
2022-10-14T13:46:48.022Z,38.64
2022-10-14T13:48:56.168Z,38.20
2022-10-14T13:51:37.023Z,38.13
2022-10-14T13:53:53.449Z,38.10
2022-10-14T13:55:55.089Z,38.03
2022-10-14T13:58:24.085Z,37.52
2022-10-14T14:00:42.787Z,38.13
2022-10-14T14:02:45.344Z,37.56
2022-10-14T14:04:52.967Z,37.42
2022-10-14T14:07:03.439Z,37.22
2022-10-14T14:09:20.694Z,37.30
2022-10-14T14:11:25.321Z,37.09
2022-10-14T14:13:37.913Z,37.31
2022-10-14T14:15:40.430Z,37.07
2022-10-14T14:17:43.630Z,36.24
2022-10-14T14:19:47.700Z,36.52
2022-10-14T14:21:49.319Z,36.94
2022-10-14T14:23:55.476Z,36.85
2022-10-14T14:26:18.533Z,36.75
2022-10-14T14:28:20.281Z,36.80
2022-10-14T14:30:29.737Z,36.55
2022-10-14T14:32:32.372Z,37.15
2022-10-14T14:34:34.847Z,36.99
2022-10-14T14:36:50.895Z,36.96
2022-10-14T14:39:01.206Z,36.89
2022-10-14T14:41:18.909Z,37.23
2022-10-14T14:43:20.870Z,37.04
2022-10-14T14:45:25.640Z,36.68
2022-10-14T14:47:28.018Z,37.16
2022-10-14T14:49:35.887Z,37.22
2022-10-14T14:51:39.609Z,37.36
2022-10-14T14:53:41.243Z,37.29
2022-10-14T14:56:00.533Z,36.75
2022-10-14T14:58:03.476Z,36.82
2022-10-14T15:00:07.397Z,37.13
2022-10-14T15:02:17.179Z,36.88
2022-10-14T15:04:21.507Z,36.84
2022-10-14T15:06:23.267Z,37.26
2022-10-14T15:08:27.905Z,37.25
2022-10-14T15:10:31.649Z,37.68
2022-10-14T15:12:50.757Z,38.07
2022-10-14T15:14:58.920Z,38.52
2022-10-14T15:17:00.893Z,38.23
2022-10-14T15:19:21.075Z,37.97
2022-10-14T15:21:24.692Z,38.35
2022-10-14T15:24:03.180Z,38.13
2022-10-14T15:26:20.197Z,38.53
2022-10-14T15:28:32.259Z,38.24
2022-10-14T15:30:39.668Z,38.72
2022-10-14T15:32:41.337Z,38.93
2022-10-14T15:34:42.993Z,38.96
2022-10-14T15:36:44.844Z,39.35
2022-10-14T15:38:46.582Z,38.93
2022-10-14T15:40:50.143Z,39.00
2022-10-14T15:42:51.948Z,39.03
2022-10-14T15:44:53.580Z,39.02
2022-10-14T15:47:15.158Z,39.16
2022-10-14T15:49:23.660Z,39.38
2022-10-14T15:51:30.454Z,39.45
2022-10-14T15:53:33.095Z,39.70
2022-10-14T15:55:36.176Z,39.73
2022-10-14T15:57:38.094Z,39.58
2022-10-14T15:59:39.712Z,39.41
2022-10-14T16:01:43.149Z,39.59
2022-10-14T16:03:44.818Z,39.65
2022-10-14T16:05:46.426Z,40.03
2022-10-14T16:07:48.837Z,42.59
2022-10-14T16:09:50.529Z,45.76
2022-10-14T16:11:57.484Z,46.82
2022-10-14T16:13:59.232Z,47.45
2022-10-14T16:16:02.692Z,48.66
2022-10-14T16:18:04.479Z,48.83
2022-10-14T16:20:06.613Z,48.90
2022-10-14T16:22:09.328Z,49.01
2022-10-14T16:24:18.230Z,49.08
2022-10-14T16:26:20.575Z,49.29
2022-10-14T16:28:22.549Z,49.31
2022-10-14T16:30:24.256Z,49.38
2022-10-14T16:32:25.862Z,49.15
2022-10-14T16:34:27.543Z,49.37
2022-10-14T16:36:29.428Z,49.32
2022-10-14T16:38:31.019Z,49.24
2022-10-14T16:40:36.653Z,49.29
2022-10-14T16:42:38.937Z,49.02
2022-10-14T16:44:40.626Z,49.27
2022-10-14T16:47:00.811Z,49.26
2022-10-14T16:49:02.433Z,48.94
2022-10-14T16:51:04.725Z,49.24
2022-10-14T16:53:24.803Z,49.04
2022-10-14T16:55:26.415Z,48.94
2022-10-14T16:57:28.492Z,48.97
2022-10-14T16:59:31.357Z,48.83
2022-10-14T17:01:33.174Z,48.66
2022-10-14T17:03:35.135Z,48.66
2022-10-14T17:05:36.959Z,48.57
2022-10-14T17:07:38.554Z,48.88
2022-10-14T17:09:41.116Z,48.50
2022-10-14T17:11:43.487Z,48.78
2022-10-14T17:13:45.176Z,48.54
2022-10-14T17:15:46.805Z,48.01
2022-10-14T17:17:48.428Z,47.92
2022-10-14T17:19:52.612Z,47.76
2022-10-14T17:21:54.565Z,47.60
2022-10-14T17:24:01.667Z,47.11
2022-10-14T17:26:04.471Z,47.12
2022-10-14T17:28:06.258Z,47.42
2022-10-14T17:30:08.419Z,47.31
2022-10-14T17:32:10.092Z,47.42
2022-10-14T17:34:11.996Z,47.28
2022-10-14T17:36:18.142Z,46.71
2022-10-14T17:38:19.717Z,46.85
2022-10-14T17:40:21.324Z,46.53
2022-10-14T17:42:23.242Z,47.11
2022-10-14T17:44:25.086Z,46.51
2022-10-14T17:46:59.588Z,46.18
2022-10-14T17:49:03.750Z,46.04
2022-10-14T17:51:05.559Z,46.53
2022-10-14T17:53:07.400Z,46.70
2022-10-14T17:55:09.387Z,47.32
2022-10-14T17:57:11.056Z,47.60
2022-10-14T17:59:14.376Z,47.91
2022-10-14T18:01:16.323Z,48.12
2022-10-14T18:03:18.555Z,48.03
2022-10-14T18:05:20.353Z,47.79
2022-10-14T18:07:23.419Z,48.26
2022-10-14T18:09:25.225Z,48.45
2022-10-14T18:11:35.365Z,48.71
2022-10-14T18:13:58.127Z,48.63
2022-10-14T18:16:08.189Z,48.52
2022-10-14T18:18:10.048Z,49.17
2022-10-14T18:20:11.924Z,49.88
2022-10-14T18:22:13.830Z,50.60
2022-10-14T18:24:15.648Z,54.51
2022-10-14T18:26:19.212Z,55.46
2022-10-14T18:28:20.827Z,57.35
2022-10-14T18:30:22.485Z,57.65
2022-10-14T18:32:24.258Z,58.38
2022-10-14T18:34:27.515Z,58.74
2022-10-14T18:36:33.183Z,59.79
2022-10-14T18:38:35.573Z,59.43
2022-10-14T18:40:37.433Z,59.14
2022-10-14T18:42:39.059Z,59.05
2022-10-14T18:44:40.631Z,59.26
2022-10-14T18:46:42.464Z,58.90
2022-10-14T18:48:48.530Z,59.02
2022-10-14T18:51:00.288Z,58.41
2022-10-14T18:53:01.936Z,57.97
2022-10-14T18:55:03.728Z,57.96
2022-10-14T18:57:05.437Z,57.78
2022-10-14T18:59:15.390Z,57.46
2022-10-14T19:01:17.236Z,57.27
2022-10-14T19:03:18.944Z,57.87
2022-10-14T19:05:20.532Z,58.02
2022-10-14T19:07:22.145Z,58.10
2022-10-14T19:09:29.644Z,57.89
2022-10-14T19:11:33.038Z,58.41
2022-10-14T19:13:35.114Z,58.22
2022-10-14T19:15:51.409Z,58.48
2022-10-14T19:17:58.916Z,58.14
2022-10-14T19:20:01.143Z,58.76
2022-10-14T19:22:02.894Z,59.52
2022-10-14T19:24:04.951Z,60.14
2022-10-14T19:26:12.298Z,59.56
2022-10-14T19:28:14.009Z,59.88
2022-10-14T19:30:15.709Z,59.83
2022-10-14T19:32:17.347Z,59.11
2022-10-14T19:34:18.984Z,58.86
2022-10-14T19:36:21.918Z,58.93
2022-10-14T19:38:23.596Z,58.43
2022-10-14T19:40:25.254Z,58.03
2022-10-14T19:42:27.100Z,58.27
2022-10-14T19:44:28.725Z,57.46
2022-10-14T19:46:30.397Z,57.53
2022-10-14T19:48:32.221Z,57.65
2022-10-14T19:50:33.799Z,57.11
2022-10-14T19:52:35.435Z,56.90
2022-10-14T19:54:37.084Z,57.34
2022-10-14T19:56:38.767Z,57.64
2022-10-14T19:58:44.647Z,57.28
2022-10-14T20:00:46.723Z,57.26
2022-10-14T20:02:49.493Z,57.63
2022-10-14T20:04:51.373Z,57.32
2022-10-14T20:06:53.069Z,57.33
2022-10-14T20:08:54.755Z,57.25
2022-10-14T20:10:56.733Z,57.23
2022-10-14T20:12:58.297Z,56.98
2022-10-14T20:14:59.884Z,56.97
2022-10-14T20:17:02.295Z,57.00
2022-10-14T20:19:03.925Z,57.11
2022-10-14T20:21:07.229Z,56.91
2022-10-14T20:23:08.918Z,56.74
2022-10-14T20:25:10.587Z,56.76
2022-10-14T20:27:12.355Z,56.93
2022-10-14T20:29:14.232Z,57.27
2022-10-14T20:31:18.013Z,57.55
2022-10-14T20:33:19.466Z,57.89
2022-10-14T20:35:21.139Z,58.13
2022-10-14T20:37:25.787Z,57.83
2022-10-14T20:39:30.222Z,58.48
2022-10-14T20:41:31.861Z,57.74
2022-10-14T20:43:33.529Z,58.14
2022-10-14T20:45:35.119Z,58.12
2022-10-14T20:47:36.698Z,57.89
2022-10-14T20:49:38.360Z,57.97
2022-10-14T20:51:40.202Z,58.41
2022-10-14T20:53:42.024Z,58.41
2022-10-14T20:55:43.619Z,58.35
2022-10-14T20:57:45.362Z,58.56
2022-10-14T20:59:47.002Z,58.66
2022-10-14T21:01:48.601Z,59.00
2022-10-14T21:03:50.436Z,58.54
2022-10-14T21:05:52.282Z,58.63
2022-10-14T21:07:53.871Z,58.38
2022-10-14T21:09:55.545Z,58.65
2022-10-14T21:11:57.151Z,58.74
2022-10-14T21:13:59.676Z,58.66
2022-10-14T21:16:01.568Z,58.55
2022-10-14T21:18:03.399Z,58.21
2022-10-14T21:20:05.686Z,58.53
2022-10-14T21:22:09.032Z,58.21
2022-10-14T21:24:13.805Z,58.32
2022-10-14T21:26:15.564Z,57.97
2022-10-14T21:28:17.212Z,57.87
2022-10-14T21:30:18.890Z,58.24
2022-10-14T21:32:20.770Z,58.12
2022-10-14T21:34:24.908Z,57.85
2022-10-14T21:36:26.805Z,58.27
2022-10-14T21:38:29.641Z,58.24
2022-10-14T21:40:31.542Z,58.69
2022-10-14T21:42:33.201Z,58.51
2022-10-14T21:44:34.795Z,58.59
2022-10-14T21:46:36.643Z,58.76
2022-10-14T21:48:38.775Z,58.47
2022-10-14T21:50:40.375Z,58.70
2022-10-14T21:52:42.167Z,58.85
2022-10-14T21:54:43.837Z,58.48
2022-10-14T21:56:45.480Z,58.84
2022-10-14T21:58:47.222Z,59.57
2022-10-14T22:00:48.973Z,59.99
2022-10-14T22:02:54.222Z,59.93
2022-10-14T22:04:55.883Z,60.18
2022-10-14T22:06:58.182Z,60.20
2022-10-14T22:09:01.320Z,59.99
2022-10-14T22:11:03.929Z,60.23
2022-10-14T22:13:06.381Z,59.93
2022-10-14T22:15:08.616Z,60.12
2022-10-14T22:17:10.353Z,59.37
2022-10-14T22:19:12.418Z,59.07
2022-10-14T22:21:15.592Z,58.73
2022-10-14T22:23:17.496Z,59.07
2022-10-14T22:25:19.130Z,59.10
2022-10-14T22:27:21.041Z,59.09
2022-10-14T22:29:22.869Z,58.87
2022-10-14T22:31:24.487Z,59.18
2022-10-14T22:33:26.090Z,58.91
2022-10-14T22:35:27.976Z,58.95
2022-10-14T22:37:32.002Z,58.99
2022-10-14T22:39:33.662Z,59.25
2022-10-14T22:41:36.095Z,59.25
2022-10-14T22:43:38.415Z,58.81
2022-10-14T22:45:40.072Z,58.72
2022-10-14T22:47:41.687Z,58.88
2022-10-14T22:49:43.329Z,58.76
2022-10-14T22:51:44.957Z,58.94
2022-10-14T22:53:46.948Z,59.12
2022-10-14T22:55:54.948Z,58.43
2022-10-14T22:57:56.571Z,59.00
2022-10-14T22:59:58.157Z,58.80
2022-10-14T23:01:59.986Z,58.52
2022-10-14T23:04:02.220Z,58.54
2022-10-14T23:06:06.509Z,59.05
2022-10-14T23:08:10.763Z,58.38
2022-10-14T23:10:12.423Z,58.73
2022-10-14T23:12:14.108Z,58.51
2022-10-14T23:14:16.004Z,58.37
2022-10-14T23:16:22.256Z,58.34
2022-10-14T23:18:25.174Z,58.16
2022-10-14T23:20:27.291Z,58.03
2022-10-14T23:22:28.932Z,58.04
2022-10-14T23:24:30.729Z,58.41
2022-10-14T23:26:34.748Z,59.60
2022-10-14T23:28:37.009Z,59.93
2022-10-14T23:30:38.709Z,60.37
2022-10-14T23:32:40.431Z,60.84
2022-10-14T23:34:42.053Z,60.93
2022-10-14T23:36:43.794Z,60.92
2022-10-14T23:38:46.561Z,60.69
2022-10-14T23:40:48.148Z,60.25
2022-10-14T23:42:49.770Z,59.87
2022-10-14T23:44:51.447Z,60.79
2022-10-14T23:46:53.062Z,60.86
2022-10-14T23:49:06.931Z,61.28
2022-10-14T23:51:09.101Z,61.23
2022-10-14T23:53:11.760Z,61.55
2022-10-14T23:55:14.281Z,61.78
2022-10-14T23:57:16.030Z,61.93
2022-10-14T23:59:17.913Z,61.83
